Time;durP1;ratioP1;P1;durP2;ratioP2;P2;SDS_P1;SDS_P2;PMS_P1;PMS_P2;Temp;Humidity;BMP_temperature;BMP_pressure;BME280_temperature;BME280_humidity;BME280_pressure;Samples;Min_cycle;Max_cycle;Signal;HPM_P1;HPM_P2
2024/02/15 00:01:40;;;;;;;6.10;2.88;;;;;;;5.12;100.00;99574.84;5127064;28;20043;-95
2024/02/15 00:04:06;;;;;;;4.20;2.50;;;;;;;5.14;100.00;99586.28;5126741;28;20048;-94
2024/02/15 00:06:34;;;;;;;5.35;2.60;;;;;;;5.17;100.00;99585.41;5109204;28;20046;-93
2024/02/15 00:09:00;;;;;;;4.05;2.58;;;;;;;5.10;100.00;99566.03;5108943;28;20023;-94
2024/02/15 00:11:26;;;;;;;5.53;2.40;;;;;;;5.13;100.00;99589.78;5109237;28;20047;-94
2024/02/15 00:13:52;;;;;;;6.03;2.65;;;;;;;4.91;100.00;99538.63;5108316;28;20036;-94
2024/02/15 00:16:19;;;;;;;6.30;3.60;;;;;;;5.15;100.00;99587.16;5107615;28;20043;-93
2024/02/15 00:18:45;;;;;;;7.38;3.72;;;;;;;5.27;100.00;99559.97;5109410;28;20461;-95
2024/02/15 00:21:11;;;;;;;7.63;3.35;;;;;;;5.53;100.00;99583.88;5109611;28;20053;-94
2024/02/15 00:23:41;;;;;;;5.88;3.05;;;;;;;5.58;100.00;99560.19;5108624;28;20063;-93
2024/02/15 00:26:07;;;;;;;;;;;;;;;5.81;100.00;99574.38;5114223;28;20504;-95
2024/02/15 00:28:34;;;;;;;7.03;3.05;;;;;;;5.87;100.00;99577.03;5108707;28;19926;-95
2024/02/15 00:31:00;;;;;;;4.50;2.78;;;;;;;5.38;100.00;99487.09;5108181;28;20031;-94
2024/02/15 00:33:26;;;;;;;3.60;2.40;;;;;;;5.93;100.00;99571.81;5093326;28;20104;-92
2024/02/15 00:35:52;;;;;;;6.18;3.20;;;;;;;5.88;100.00;99547.16;5088124;28;20131;-94
2024/02/15 00:38:19;;;;;;;11.32;3.40;;;;;;;6.09;100.00;99548.13;5088579;28;20093;-93
2024/02/15 00:40:46;;;;;;;7.90;2.72;;;;;;;6.42;100.00;99571.13;5087909;28;20127;-92
2024/02/15 00:43:17;;;;;;;7.20;3.30;;;;;;;6.12;100.00;99521.75;5088051;28;20056;-96
2024/02/15 00:45:42;;;;;;;9.50;5.13;;;;;;;5.60;100.00;99477.53;5082366;28;20405;-94
2024/02/15 00:48:09;;;;;;;8.32;4.15;;;;;;;5.92;100.00;99540.09;5087131;28;20024;-94
2024/02/15 00:50:35;;;;;;;10.80;4.25;;;;;;;5.59;100.00;99503.91;5087401;28;20040;-96
2024/02/15 00:53:02;;;;;;;8.70;4.72;;;;;;;5.78;100.00;99553.25;5086809;28;20043;-95
2024/02/15 00:55:27;;;;;;;8.60;4.25;;;;;;;5.28;100.00;99480.00;5086627;28;20040;-93
2024/02/15 00:57:55;;;;;;;9.10;4.53;;;;;;;5.41;100.00;99544.25;5086619;28;20048;-94
2024/02/15 01:00:21;;;;;;;10.80;4.47;;;;;;;4.82;100.00;99453.38;5087271;28;20146;-94
2024/02/15 01:02:47;;;;;;;9.60;4.38;;;;;;;5.28;100.00;99551.22;5087988;28;20050;-94
2024/02/15 01:05:18;;;;;;;7.40;3.85;;;;;;;4.94;100.00;99503.50;5087110;28;20079;-93
2024/02/15 01:07:48;;;;;;;8.43;4.07;;;;;;;4.94;100.00;99532.50;5074428;28;20143;-94
2024/02/15 01:10:15;;;;;;;9.50;4.00;;;;;;;4.57;100.00;99482.13;5087600;28;20036;-93
2024/02/15 01:12:41;;;;;;;7.25;4.10;;;;;;;4.56;100.00;99490.94;5087272;28;20398;-93
2024/02/15 01:15:09;;;;;;;7.93;4.03;;;;;;;4.87;100.00;99552.66;5086184;28;20060;-94
2024/02/15 01:17:35;;;;;;;6.75;3.47;;;;;;;4.53;100.00;99514.59;5086439;28;20052;-95
2024/02/15 01:20:01;;;;;;;6.90;3.92;;;;;;;4.76;100.00;99563.97;5087756;28;20485;-94
2024/02/15 01:22:29;;;;;;;7.00;2.92;;;;;;;4.27;100.00;99470.47;5087809;28;20044;-93
2024/02/15 01:24:58;;;;;;;6.13;3.25;;;;;;;4.29;100.00;99505.59;5087255;28;20464;-94
2024/02/15 01:27:24;;;;;;;6.38;3.28;;;;;;;4.60;100.00;99555.03;5087358;28;20031;-93
2024/02/15 01:29:49;;;;;;;6.20;3.35;;;;;;;4.13;100.00;99477.34;5087436;28;20036;-96
2024/02/15 01:32:17;;;;;;;7.35;3.67;;;;;;;4.45;100.00;99547.88;5085940;28;20135;-94
2024/02/15 01:34:43;;;;;;;5.80;3.47;;;;;;;4.66;100.00;99560.38;5085690;28;20055;-92
2024/02/15 01:37:09;;;;;;;9.23;4.30;;;;;;;4.66;100.00;99556.00;5086606;28;20040;-94
2024/02/15 01:39:35;;;;;;;6.20;4.10;;;;;;;4.62;100.00;99553.28;5086896;28;20032;-94
2024/02/15 01:42:02;;;;;;;9.77;4.70;;;;;;;4.57;100.00;99565.56;5086809;28;20044;-93
2024/02/15 01:44:28;;;;;;;8.43;4.20;;;;;;;3.86;100.00;99470.03;5087569;28;20193;-93
2024/02/15 01:46:55;;;;;;;11.35;4.40;;;;;;;4.21;100.00;99541.50;5086473;28;20055;-93
2024/02/15 01:49:23;;;;;;;10.40;5.60;;;;;;;3.96;100.00;99477.16;5087139;28;20062;-95
2024/02/15 01:51:50;;;;;;;6.68;3.33;;;;;;;3.88;100.00;99468.28;5087026;28;20040;-94
2024/02/15 01:54:17;;;;;;;9.73;3.60;;;;;;;4.28;100.00;99516.13;5086406;28;20036;-94
2024/02/15 01:56:43;;;;;;;6.15;3.72;;;;;;;4.47;100.00;99549.66;5086393;28;20063;-94
2024/02/15 01:59:11;;;;;;;5.05;2.95;;;;;;;4.51;100.00;99521.59;5085576;28;20043;-94
2024/02/15 02:01:38;;;;;;;6.63;3.05;;;;;;;4.61;100.00;99517.31;5086457;28;20048;-94
2024/02/15 02:04:04;;;;;;;5.07;2.53;;;;;;;4.58;100.00;99481.28;5086160;28;20043;-95
2024/02/15 02:06:32;;;;;;;6.00;3.33;;;;;;;4.83;100.00;99521.00;5084638;28;20111;-94
2024/02/15 02:08:58;;;;;;;7.05;3.33;;;;;;;4.48;100.00;99466.25;5085382;28;20040;-93
2024/02/15 02:11:26;;;;;;;7.13;3.22;;;;;;;4.38;100.00;99449.53;5086232;28;20036;-95
2024/02/15 02:13:52;;;;;;;9.05;3.63;;;;;;;4.88;100.00;99538.63;5084917;28;20045;-93
2024/02/15 02:16:27;;;;;;;7.93;4.00;;;;;;;4.64;100.00;99489.25;5085815;28;20036;-93
2024/02/15 02:18:55;;;;;;;6.03;3.25;;;;;;;4.58;100.00;99489.19;5085654;28;20048;-93
2024/02/15 02:21:21;;;;;;;6.50;3.03;;;;;;;4.36;100.00;99447.72;5086026;28;20041;-95
2024/02/15 02:23:53;;;;;;;8.48;3.88;;;;;;;4.74;100.00;99535.84;5085309;28;20063;-95
2024/02/15 02:26:21;;;;;;;7.78;3.80;;;;;;;4.68;100.00;99541.09;5085644;28;20075;-93
2024/02/15 02:28:47;;;;;;;8.32;3.95;;;;;;;4.56;100.00;99519.03;5086034;28;20044;-94
2024/02/15 02:31:13;;;;;;;6.88;3.42;;;;;;;3.96;100.00;99434.19;5085351;28;20058;-95
2024/02/15 02:33:40;;;;;;;6.57;3.05;;;;;;;4.26;100.00;99481.88;5100967;28;20051;-93
2024/02/15 02:36:09;;;;;;;5.47;3.03;;;;;;;4.59;100.00;99517.28;5106368;28;20179;-93
2024/02/15 02:38:37;;;;;;;6.93;3.80;;;;;;;4.73;100.00;99536.75;5106135;28;20040;-94
2024/02/15 02:41:03;;;;;;;8.25;3.88;;;;;;;4.14;100.00;99452.78;5108714;28;20039;-93
2024/02/15 02:43:31;;;;;;;8.95;3.47;;;;;;;4.10;100.00;99436.09;5105966;28;20043;-93
2024/02/15 02:45:57;;;;;;;6.35;3.28;;;;;;;4.46;100.00;99510.13;5106837;28;20056;-93
2024/02/15 02:48:23;;;;;;;7.28;3.75;;;;;;;4.44;100.00;99523.28;5105542;28;20026;-94
2024/02/15 02:50:49;;;;;;;7.95;3.50;;;;;;;4.06;100.00;99475.53;5104394;28;20119;-93
2024/02/15 02:53:16;;;;;;;4.97;3.05;;;;;;;3.89;100.00;99460.44;5105495;28;20061;-94
2024/02/15 02:55:42;;;;;;;6.00;3.47;;;;;;;3.96;100.00;99463.13;5114320;27;20039;-92
2024/02/15 02:58:08;;;;;;;8.52;4.43;;;;;;;4.34;100.00;99545.16;5140829;27;20384;-94
2024/02/15 03:00:37;;;;;;;6.65;3.05;;;;;;;4.24;100.00;99527.47;5108820;27;20579;-94
2024/02/15 03:03:05;;;;;;;4.55;2.40;;;;;;;3.96;100.00;99485.06;5126629;27;20066;-92
2024/02/15 03:05:31;;;;;;;6.00;3.63;;;;;;;4.32;100.00;99534.59;5108119;28;20492;-94
2024/02/15 03:07:58;;;;;;;5.88;3.53;;;;;;;3.94;100.00;99473.63;5116697;27;20069;-93
2024/02/15 03:10:30;;;;;;;7.95;3.58;;;;;;;4.08;100.00;99500.13;5086690;28;20501;-94
2024/02/15 03:12:56;;;;;;;6.95;3.63;;;;;;;4.17;100.00;99518.63;5105375;28;20035;-94
2024/02/15 03:15:22;;;;;;;5.20;2.78;;;;;;;3.96;100.00;99457.88;5104835;28;20050;-92
2024/02/15 03:17:51;;;;;;;6.47;3.35;;;;;;;4.52;100.00;99534.78;5104681;28;20035;-93
2024/02/15 03:20:21;;;;;;;9.23;3.60;;;;;;;4.43;100.00;99528.56;5105801;28;20074;-94
2024/02/15 03:22:52;;;;;;;7.70;3.72;;;;;;;4.03;100.00;99465.81;5115023;27;20419;-95
2024/02/15 03:25:18;;;;;;;4.70;3.00;;;;;;;4.02;100.00;99471.09;5113855;28;20047;-93
2024/02/15 03:27:44;;;;;;;7.03;3.08;;;;;;;4.31;100.00;99548.59;5104471;28;20039;-93
2024/02/15 03:30:11;;;;;;;7.53;3.65;;;;;;;4.00;100.00;99539.50;5105090;28;20107;-93
2024/02/15 03:32:37;;;;;;;6.30;3.30;;;;;;;3.49;100.00;99456.44;5099848;28;20048;-94
2024/02/15 03:35:05;;;;;;;8.32;3.58;;;;;;;3.82;100.00;99497.19;5084460;28;20036;-93
2024/02/15 03:37:33;;;;;;;6.30;3.10;;;;;;;3.73;100.00;99482.19;5083263;28;20086;-93
2024/02/15 03:39:59;;;;;;;9.38;3.08;;;;;;;3.46;100.00;99457.28;5083800;28;20053;-93
2024/02/15 03:42:26;;;;;;;5.00;3.20;;;;;;;3.90;100.00;99537.63;5084366;28;20040;-93
2024/02/15 03:44:54;;;;;;;6.85;3.38;;;;;;;3.72;100.00;99522.50;5084667;28;20036;-93
2024/02/15 03:47:20;;;;;;;7.20;3.25;;;;;;;3.72;100.00;99533.00;5083291;28;20058;-93
2024/02/15 03:49:46;;;;;;;6.80;3.25;;;;;;;3.79;100.00;99542.75;5084484;28;20097;-94
2024/02/15 03:52:13;;;;;;;7.82;3.53;;;;;;;3.16;100.00;99494.56;5084514;28;20044;-93
2024/02/15 03:54:42;;;;;;;5.32;3.35;;;;;;;3.27;100.00;99515.75;5064616;28;20102;-94
2024/02/15 03:57:11;;;;;;;5.63;2.67;;;;;;;2.84;100.00;99428.41;5104136;28;20096;-92
2024/02/15 03:59:37;;;;;;;8.52;3.72;;;;;;;2.95;100.00;99428.56;5105457;28;20048;-94
2024/02/15 04:02:05;;;;;;;6.82;3.40;;;;;;;3.50;100.00;99508.19;5105226;28;20040;-95
2024/02/15 04:04:36;;;;;;;5.32;3.83;;;;;;;3.19;100.00;99456.94;5105218;28;20726;-94
2024/02/15 04:07:03;;;;;;;5.40;3.33;;;;;;;3.27;100.00;99464.09;5105230;28;20038;-93
2024/02/15 04:09:30;;;;;;;7.50;3.47;;;;;;;3.18;100.00;99444.66;5105715;28;20054;-94
2024/02/15 04:11:57;;;;;;;8.02;3.03;;;;;;;3.35;100.00;99484.31;5105321;28;20085;-93
2024/02/15 04:14:24;;;;;;;7.20;3.58;;;;;;;3.50;100.00;99521.34;5103883;28;20044;-93
2024/02/15 04:16:50;;;;;;;8.10;3.85;;;;;;;3.49;100.00;99514.28;5103946;28;20067;-94
2024/02/15 04:19:15;;;;;;;6.82;2.72;;;;;;;3.47;100.00;99523.91;5104306;28;20038;-94
2024/02/15 04:21:43;;;;;;;5.10;3.33;;;;;;;3.50;100.00;99514.31;5105201;28;20039;-93
2024/02/15 04:24:10;;;;;;;5.20;2.90;;;;;;;3.55;100.00;99522.28;5104901;28;20051;-92
2024/02/15 04:26:37;;;;;;;8.27;4.22;;;;;;;3.68;100.00;99533.84;5103565;28;20044;-93
2024/02/15 04:29:04;;;;;;;6.70;3.17;;;;;;;3.53;100.00;99523.13;5105031;28;20527;-93
2024/02/15 04:31:31;;;;;;;6.80;3.25;;;;;;;3.64;100.00;99542.53;5105134;28;20035;-93
2024/02/15 04:33:58;;;;;;;8.13;3.47;;;;;;;3.00;100.00;99445.31;5099332;28;20056;-92
2024/02/15 04:36:25;;;;;;;6.68;3.40;;;;;;;2.97;100.00;99467.16;5084726;28;20059;-94
2024/02/15 04:38:57;;;;;;;5.80;3.15;;;;;;;3.33;100.00;99536.00;5084463;28;20494;-93
2024/02/15 04:41:27;;;;;;;5.90;2.88;;;;;;;3.09;100.00;99483.09;5088014;28;20044;-95
2024/02/15 04:43:54;;;;;;;6.43;3.65;;;;;;;3.18;100.00;99507.75;5088530;28;20048;-94
2024/02/15 04:46:21;;;;;;;5.53;3.13;;;;;;;2.76;100.00;99451.97;5088473;28;20044;-93
2024/02/15 04:48:49;;;;;;;5.55;3.45;;;;;;;3.23;100.00;99529.72;5088053;28;20078;-94
2024/02/15 04:51:17;;;;;;;6.60;3.50;;;;;;;3.18;100.00;99532.28;5088261;28;20040;-94
2024/02/15 04:53:43;;;;;;;7.38;3.25;;;;;;;3.11;100.00;99529.53;5087837;28;20034;-95
2024/02/15 04:56:13;;;;;;;9.27;3.55;;;;;;;3.29;100.00;99543.81;5088355;28;20036;-94
2024/02/15 04:58:45;;;;;;;7.93;4.00;;;;;;;3.27;100.00;99545.56;5088009;28;20480;-93
2024/02/15 05:01:16;;;;;;;7.20;3.45;;;;;;;2.91;100.00;99481.94;5087165;28;20040;-93
2024/02/15 05:03:42;;;;;;;9.40;4.30;;;;;;;2.93;100.00;99491.63;5086334;28;20044;-92
2024/02/15 05:06:09;;;;;;;6.20;3.10;;;;;;;3.15;100.00;99515.59;5087636;28;20078;-95
2024/02/15 05:08:42;;;;;;;7.38;4.28;;;;;;;3.32;100.00;99537.75;5087620;28;20409;-94
2024/02/15 05:11:13;;;;;;;7.40;3.78;;;;;;;3.07;100.00;99521.59;5087862;28;20036;-93
2024/02/15 05:13:38;;;;;;;7.70;2.92;;;;;;;2.72;100.00;99488.66;5087992;28;20115;-95
2024/02/15 05:16:05;;;;;;;6.45;3.13;;;;;;;2.91;100.00;99524.88;5087474;28;20116;-94
2024/02/15 05:18:36;;;;;;;4.75;2.72;;;;;;;3.03;100.00;99543.44;5087470;28;20127;-94
2024/02/15 05:21:03;;;;;;;7.05;3.90;;;;;;;2.50;100.00;99462.06;5086630;28;20098;-93
2024/02/15 05:23:29;;;;;;;6.43;3.10;;;;;;;2.80;100.00;99485.28;5086826;28;20039;-93
2024/02/15 05:25:56;;;;;;;5.68;3.03;;;;;;;2.77;100.00;99500.09;5087233;28;20044;-92
2024/02/15 05:28:26;;;;;;;4.13;2.78;;;;;;;3.02;100.00;99548.69;5087298;28;20127;-92
2024/02/15 05:31:10;;;;;;;6.70;3.30;;;;;;;2.93;100.00;99533.66;5087291;28;20044;-93
2024/02/15 05:33:43;;;;;;;9.80;4.32;;;;;;;2.99;100.00;99549.53;5087404;28;20074;-95
2024/02/15 05:36:10;;;;;;;8.25;3.92;;;;;;;3.03;100.00;99530.28;5087353;28;20047;-94
2024/02/15 05:38:36;;;;;;;12.23;5.22;;;;;;;2.83;100.00;99537.00;5088255;28;20048;-94
2024/02/15 05:41:03;;;;;;;7.88;3.92;;;;;;;2.91;100.00;99540.63;5087615;28;20039;-94
2024/02/15 05:43:30;;;;;;;7.18;5.32;;;;;;;2.43;100.00;99474.19;5086989;28;20396;-93
2024/02/15 05:45:59;;;;;;;10.48;3.70;;;;;;;2.71;100.00;99536.78;5087128;28;20024;-94
2024/02/15 05:48:25;;;;;;;6.05;3.15;;;;;;;2.73;100.00;99545.56;5086522;28;20043;-94
2024/02/15 05:50:54;;;;;;;9.15;4.05;;;;;;;2.68;100.00;99541.13;5086735;28;20135;-94
2024/02/15 05:53:20;;;;;;;8.05;4.40;;;;;;;2.83;100.00;99551.00;5085692;28;20055;-93
2024/02/15 05:55:49;;;;;;;7.47;3.55;;;;;;;2.81;100.00;99547.47;5087280;28;20051;-95
2024/02/15 05:58:15;;;;;;;7.38;4.30;;;;;;;2.51;100.00;99508.44;5089553;28;20044;-94
2024/02/15 06:00:41;;;;;;;9.88;4.32;;;;;;;2.83;100.00;99565.88;5089940;28;20032;-96
2024/02/15 06:03:09;;;;;;;6.82;4.13;;;;;;;2.51;100.00;99505.81;5089759;28;20146;-93
2024/02/15 06:05:35;;;;;;;8.48;4.35;;;;;;;2.38;100.00;99498.59;5088801;28;20040;-94
2024/02/15 06:08:04;;;;;;;12.90;5.07;;;;;;;2.49;100.00;99518.03;5089457;28;20051;-94
2024/02/15 06:10:30;;;;;;;9.27;4.25;;;;;;;2.70;100.00;99558.66;5093253;28;20048;-94
2024/02/15 06:12:58;;;;;;;8.82;4.35;;;;;;;2.55;100.00;99533.00;5091430;28;20044;-96
2024/02/15 06:15:24;;;;;;;6.40;4.30;;;;;;;2.36;100.00;99485.44;5088162;28;20036;-94
2024/02/15 06:17:50;;;;;;;8.57;4.45;;;;;;;2.37;100.00;99483.72;5088159;28;20496;-95
2024/02/15 06:20:17;;;;;;;8.50;4.03;;;;;;;2.42;100.00;99487.28;5086782;28;20509;-96
2024/02/15 06:22:43;;;;;;;10.73;4.65;;;;;;;2.82;100.00;99582.47;5086073;28;20520;-94
2024/02/15 06:25:11;;;;;;;7.88;4.28;;;;;;;2.78;100.00;99593.81;5086671;28;20095;-94
2024/02/15 06:27:40;;;;;;;7.20;4.38;;;;;;;2.77;100.00;99587.66;5087539;28;20040;-94
2024/02/15 06:39:38;;;;;;;9.50;3.97;;;;;;;2.89;100.00;99597.50;5155321;27;20377;-95
2024/02/15 06:49:53;;;;;;;12.85;5.55;;;;;;;2.76;100.00;99561.41;5138260;27;20373;-94
2024/02/15 06:52:20;;;;;;;13.43;5.90;;;;;;;2.58;100.00;99526.09;5120606;28;20040;-94
2024/02/15 06:54:46;;;;;;;12.18;7.03;;;;;;;2.64;100.00;99515.66;5121552;28;20493;-94
2024/02/15 06:57:13;;;;;;;13.68;5.10;;;;;;;2.73;100.00;99527.19;5122222;28;20044;-95
2024/02/15 06:59:39;;;;;;;11.93;5.43;;;;;;;3.22;100.00;99619.94;5121809;28;20126;-96
2024/02/15 07:02:07;;;;;;;11.65;5.32;;;;;;;3.11;100.00;99571.59;5121344;28;20044;-95
2024/02/15 07:04:33;;;;;;;12.82;5.85;;;;;;;2.76;100.00;99509.75;5121728;28;20082;-95
2024/02/15 07:07:02;;;;;;;9.05;5.60;;;;;;;3.14;100.00;99564.63;5122888;28;20048;-96
2024/02/15 07:09:28;;;;;;;12.93;6.90;;;;;;;3.01;100.00;99504.84;5123534;28;20028;-94
2024/02/15 07:11:55;;;;;;;12.05;6.40;;;;;;;3.68;100.00;99603.09;5122326;28;20058;-95
2024/02/15 07:14:21;;;;;;;10.02;5.38;;;;;;;3.69;100.00;99585.59;5124756;28;20044;-96
2024/02/15 07:16:47;;;;;;;10.15;6.10;;;;;;;3.75;100.00;99583.03;5123116;28;20052;-94
2024/02/15 07:19:15;;;;;;;14.65;5.72;;;;;;;3.44;100.00;99508.97;5121964;28;20047;-95
2024/02/15 07:21:46;;;;;;;11.25;6.38;;;;;;;3.54;100.00;99506.50;5124064;28;20052;-96
2024/02/15 07:24:14;;;;;;;13.00;5.43;;;;;;;4.14;100.00;99602.81;5106322;28;20107;-96
2024/02/15 07:26:40;;;;;;;11.05;5.32;;;;;;;4.31;100.00;99603.03;5122725;28;20127;-95
2024/02/15 07:29:07;;;;;;;11.00;6.22;;;;;;;3.92;100.00;99514.84;5122068;28;20036;-96
2024/02/15 07:31:34;;;;;;;12.50;5.72;;;;;;;4.15;100.00;99532.66;5122306;28;20044;-95
2024/02/15 07:34:00;;;;;;;10.80;6.22;;;;;;;4.31;100.00;99545.97;5122302;28;20055;-96
2024/02/15 07:36:27;;;;;;;12.13;5.40;;;;;;;4.11;100.00;99497.50;5122330;28;20043;-95
2024/02/15 07:38:53;;;;;;;12.00;6.03;;;;;;;4.67;100.00;99581.47;5121831;28;20077;-96
2024/02/15 07:41:22;;;;;;;9.10;4.93;;;;;;;4.92;100.00;99601.03;5123375;28;20043;-95
2024/02/15 07:43:49;;;;;;;11.43;5.78;;;;;;;4.58;100.00;99522.56;5122526;28;20057;-96
2024/02/15 07:46:16;;;;;;;7.63;5.53;;;;;;;5.07;100.00;99578.28;5121145;28;20048;-96
2024/02/15 07:48:45;;;;;;;6.40;3.38;;;;;;;5.43;100.00;99588.22;5120396;28;20024;-94
2024/02/15 07:51:12;;;;;;;7.55;4.10;;;;;;;5.29;100.00;99551.22;5119364;28;20063;-94
2024/02/15 07:53:40;;;;;;;7.65;3.95;;;;;;;5.22;100.00;99495.78;5119859;28;20047;-95
2024/02/15 07:56:06;;;;;;;10.77;4.55;;;;;;;5.69;100.00;99555.84;5119664;28;20050;-95
2024/02/15 07:58:34;;;;;;;9.32;4.38;;;;;;;5.34;100.00;99491.47;5119363;28;20051;-95
2024/02/15 08:08:16;;;;;;;6.40;3.28;;;;;;;6.64;100.00;99571.19;5010224;28;20034;-95
2024/02/15 08:11:10;;;;;;;5.32;2.58;;;;;;;6.27;100.00;99500.66;5010396;28;20053;-95
2024/02/15 08:13:38;;;;;;;9.77;3.30;;;;;;;6.92;100.00;99572.97;5008655;28;20076;-95
2024/02/15 08:16:06;;;;;;;6.43;3.67;;;;;;;6.86;100.00;99524.50;5006945;28;20132;-95
2024/02/15 08:18:54;;;;;;;9.40;3.53;;;;;;;7.41;100.00;99574.72;5007375;28;20042;-95
2024/02/15 08:21:31;;;;;;;7.43;3.53;;;;;;;7.28;100.00;99538.56;5008674;28;20045;-95
2024/02/15 08:24:10;;;;;;;9.32;3.80;;;;;;;7.34;100.00;99531.50;5024336;28;20045;-96
2024/02/15 08:26:47;;;;;;;9.20;4.70;;;;;;;7.69;100.00;99569.38;5010323;28;20439;-96
2024/02/15 08:29:19;;;;;;;15.98;7.65;;;;;;;6.89;100.00;99488.34;5009539;28;20053;-96
2024/02/15 08:31:48;;;;;;;13.88;7.35;;;;;;;6.80;100.00;99496.28;5008972;28;20046;-96
2024/02/15 08:34:15;;;;;;;10.32;4.97;;;;;;;7.10;100.00;99490.09;5039105;28;20075;-96
2024/02/15 08:36:41;;;;;;;5.88;3.90;;;;;;;7.86;100.00;99586.09;5108682;28;20371;-94
2024/02/15 08:39:11;;;;;;;8.90;4.65;;;;;;;7.82;100.00;99579.03;5107796;28;20073;-96
2024/02/15 08:41:38;;;;;;;7.97;4.28;;;;;;;7.97;100.00;99581.63;5107967;28;20071;-95
2024/02/15 08:44:09;;;;;;;8.43;4.72;;;;;;;7.22;100.00;99496.25;5105639;28;20052;-95
2024/02/15 08:46:36;;;;;;;7.05;4.05;;;;;;;7.44;100.00;99486.50;5105198;28;20047;-96
2024/02/15 08:49:03;;;;;;;9.55;4.43;;;;;;;8.01;100.00;99567.50;5103489;28;20105;-95
2024/02/15 08:51:30;;;;;;;13.93;4.18;;;;;;;8.27;99.95;99585.03;5104724;28;20047;-96
2024/02/15 08:53:56;;;;;;;5.07;3.60;;;;;;;7.91;96.25;99494.25;5104193;28;20048;-96
2024/02/15 08:56:49;;;;;;;7.95;4.05;;;;;;;8.32;96.41;99554.09;5103761;28;20032;-95
2024/02/15 08:59:18;;;;;;;6.72;3.72;;;;;;;8.32;95.99;99556.75;5089965;28;20048;-95
2024/02/15 09:01:51;;;;;;;7.50;4.45;;;;;;;8.29;95.39;99577.97;5102434;28;20044;-96
2024/02/15 09:04:21;;;;;;;7.28;3.97;;;;;;;8.07;96.97;99579.84;5102750;28;20374;-96
2024/02/15 09:06:55;;;;;;;7.78;4.28;;;;;;;7.75;95.99;99481.97;5104153;28;20043;-96
2024/02/15 09:09:37;;;;;;;5.55;2.97;;;;;;;8.64;94.27;99574.28;5083863;28;20068;-96
2024/02/15 09:12:11;;;;;;;5.40;3.10;;;;;;;8.52;92.56;99492.16;5087034;28;20314;-96
2024/02/15 09:14:47;;;;;;;7.30;3.28;;;;;;;8.96;90.69;99515.69;5085218;28;20093;-96
2024/02/15 09:17:16;;;;;;;8.25;4.43;;;;;;;9.49;90.26;99569.16;5084926;28;20049;-96
2024/02/15 09:19:42;;;;;;;8.32;4.03;;;;;;;9.08;88.01;99481.97;5108002;28;20045;-96
2024/02/15 09:22:08;;;;;;;7.90;4.15;;;;;;;9.57;88.66;99538.09;5106986;28;20419;-96
2024/02/15 09:24:34;;;;;;;6.82;4.55;;;;;;;9.78;87.29;99544.06;5105893;28;20048;-95
2024/02/15 09:27:01;;;;;;;8.10;5.07;;;;;;;10.03;84.58;99568.56;5107425;28;20042;-96
2024/02/15 09:29:29;;;;;;;8.32;4.50;;;;;;;9.53;83.82;99485.06;5109738;28;20044;-96
2024/02/15 09:31:55;;;;;;;7.85;4.45;;;;;;;9.83;84.89;99523.66;5106323;28;20062;-95
2024/02/15 09:34:23;;;;;;;9.07;5.20;;;;;;;10.13;84.17;99558.69;5106455;28;20051;-96
2024/02/15 09:36:49;;;;;;;7.45;4.68;;;;;;;9.71;83.75;99473.31;5109912;28;20073;-96
2024/02/15 09:39:17;;;;;;;9.45;4.80;;;;;;;10.37;84.53;99563.75;5109406;28;20043;-96
2024/02/15 09:41:44;;;;;;;12.68;5.78;;;;;;;10.47;82.87;99557.41;5106506;28;20067;-96
2024/02/15 09:44:10;;;;;;;9.57;4.75;;;;;;;10.54;84.17;99541.34;5107014;28;20040;-96
2024/02/15 09:46:42;;;;;;;7.85;5.18;;;;;;;10.62;81.84;99545.66;5108752;28;20039;-95
2024/02/15 09:49:09;;;;;;;11.73;5.63;;;;;;;10.69;82.53;99530.47;5108296;28;20038;-96
2024/02/15 09:51:37;;;;;;;12.15;5.50;;;;;;;10.83;82.61;99536.47;5111242;28;20048;-95
2024/02/15 09:54:13;;;;;;;11.27;5.70;;;;;;;11.07;82.49;99543.16;5112206;28;20054;-95
2024/02/15 09:56:41;;;;;;;9.65;5.97;;;;;;;10.72;80.09;99482.56;5111047;28;20044;-96
2024/02/15 09:59:07;;;;;;;9.57;5.38;;;;;;;10.83;80.76;99498.34;5110552;28;20072;-95
2024/02/15 10:01:35;;;;;;;10.63;5.88;;;;;;;10.66;80.31;99453.41;5111863;28;20470;-96
2024/02/15 10:04:06;;;;;;;9.38;6.38;;;;;;;10.79;80.10;99457.59;5111776;28;20046;-96
2024/02/15 10:06:33;;;;;;;11.60;5.50;;;;;;;11.42;79.97;99543.47;5110916;28;20040;-95
2024/02/15 10:09:27;;;;;;;10.38;5.65;;;;;;;11.01;78.62;99454.56;5109625;28;20111;-96
2024/02/15 10:11:58;;;;;;;14.50;7.15;;;;;;;11.58;78.83;99538.72;5109239;28;20044;-96
2024/02/15 10:14:25;;;;;;;11.45;6.28;;;;;;;11.68;78.15;99525.19;5111501;28;20044;-96
2024/02/15 10:16:54;;;;;;;9.45;6.32;;;;;;;11.51;77.76;99482.94;5111841;28;20040;-96
2024/02/15 10:19:24;;;;;;;11.15;6.63;;;;;;;11.67;76.10;99523.47;5109681;28;20024;-96
2024/02/15 10:21:55;;;;;;;16.35;7.25;;;;;;;11.71;77.51;99500.31;5110701;28;20068;-96
2024/02/15 10:24:24;;;;;;;11.90;6.90;;;;;;;11.91;75.97;99526.59;5107944;28;20043;-95
2024/02/15 10:27:01;;;;;;;10.13;6.03;;;;;;;11.44;74.78;99433.34;5109354;28;20039;-95
2024/02/15 10:29:27;;;;;;;11.15;6.10;;;;;;;11.57;74.34;99451.75;5106857;28;20079;-95
2024/02/15 10:31:54;;;;;;;8.98;5.70;;;;;;;11.33;74.64;99429.16;5106350;28;20058;-96
2024/02/15 10:34:20;;;;;;;10.07;5.10;;;;;;;12.01;73.92;99506.81;5107542;28;20043;-96
2024/02/15 10:36:46;;;;;;;9.95;5.60;;;;;;;11.65;72.50;99453.34;5107587;28;20054;-96
2024/02/15 10:39:16;;;;;;;9.43;5.45;;;;;;;11.65;71.91;99479.97;5107457;28;20071;-96
2024/02/15 10:41:45;;;;;;;8.60;5.10;;;;;;;11.53;71.56;99466.91;5107921;28;20048;-96
2024/02/15 10:44:17;;;;;;;7.22;5.00;;;;;;;11.53;70.26;99448.25;5107407;28;20035;-96
2024/02/15 10:46:44;;;;;;;9.90;5.18;;;;;;;11.50;70.53;99427.88;5108641;28;20043;-95
2024/02/15 10:49:10;;;;;;;9.80;5.68;;;;;;;11.50;70.53;99419.03;5106025;28;20039;-96
2024/02/15 10:51:42;;;;;;;7.88;5.15;;;;;;;11.78;70.87;99450.44;5108206;28;20054;-96
2024/02/15 10:54:14;;;;;;;9.80;5.40;;;;;;;11.91;70.50;99473.28;5106281;28;20043;-96
2024/02/15 10:56:46;;;;;;;13.30;5.65;;;;;;;12.12;70.93;99490.56;5106843;28;20043;-96
2024/02/15 10:59:20;;;;;;;8.75;5.30;;;;;;;11.68;70.50;99426.63;5104209;28;20039;-96
2024/02/15 11:01:51;;;;;;;10.27;5.88;;;;;;;12.04;71.30;99496.09;5105625;28;20063;-95
2024/02/15 11:04:22;;;;;;;10.50;5.80;;;;;;;11.66;71.98;99403.59;5104166;28;20055;-95
2024/02/15 11:06:50;;;;;;;11.93;5.82;;;;;;;11.72;72.53;99396.34;5113285;28;20107;-96
2024/02/15 11:09:17;;;;;;;15.15;6.78;;;;;;;12.23;71.34;99464.56;5111225;28;20039;-95
2024/02/15 11:11:44;;;;;;;11.55;6.85;;;;;;;11.86;72.42;99401.41;5106297;28;20135;-96
2024/02/15 11:14:29;;;;;;;11.73;6.55;;;;;;;12.17;74.05;99469.19;5098972;28;20135;-95
2024/02/15 11:16:56;;;;;;;12.57;7.13;;;;;;;12.17;73.66;99477.19;5088773;28;20508;-96
2024/02/15 11:19:41;;;;;;;12.25;6.70;;;;;;;11.64;75.47;99392.97;5088424;28;20040;-95
2024/02/15 11:22:10;;;;;;;10.40;6.07;;;;;;;11.74;75.52;99395.44;5104516;28;20373;-95
2024/02/15 11:24:45;;;;;;;11.60;7.55;;;;;;;12.19;75.75;99472.66;5096472;28;20032;-95
2024/02/15 11:27:13;;;;;;;10.63;6.43;;;;;;;12.08;76.42;99451.59;5090920;28;20044;-96
2024/02/15 11:29:51;;;;;;;12.18;6.95;;;;;;;11.79;75.67;99370.44;5095860;28;20093;-95
2024/02/15 11:32:39;;;;;;;14.25;7.38;;;;;;;12.16;74.92;99424.75;5080694;28;20123;-96
2024/02/15 11:35:14;;;;;;;11.60;6.97;;;;;;;11.86;74.66;99355.19;5105271;28;20050;-96
2024/02/15 11:37:58;;;;;;;14.50;7.50;;;;;;;11.92;74.56;99357.75;5103512;28;20051;-94
2024/02/15 11:40:27;;;;;;;11.40;7.13;;;;;;;11.95;72.15;99331.03;5094510;28;20040;-94
2024/02/15 11:42:54;;;;;;;12.25;7.00;;;;;;;12.45;73.60;99400.06;5111877;28;20063;-95
2024/02/15 11:45:22;;;;;;;11.93;6.97;;;;;;;12.48;73.50;99415.97;5091808;28;20047;-95
2024/02/15 11:47:50;;;;;;;11.18;6.30;;;;;;;12.59;73.93;99423.72;5091120;28;20051;-95
2024/02/15 11:50:17;;;;;;;11.65;6.68;;;;;;;12.27;74.68;99346.25;5086882;28;20051;-95
2024/02/15 11:52:44;;;;;;;13.57;6.57;;;;;;;12.56;73.10;99400.66;5087467;28;20040;-96
2024/02/15 11:55:11;;;;;;;13.35;6.70;;;;;;;12.27;71.81;99354.28;5081098;28;20023;-95
2024/02/15 11:57:48;;;;;;;14.75;6.40;;;;;;;12.57;69.77;99359.72;5088696;28;20108;-93
2024/02/15 12:18:46;;;;;;;14.15;6.28;;;;;;;12.80;70.52;99299.53;5082068;27;20415;-95
2024/02/15 12:21:25;;;;;;;14.85;6.75;;;;;;;13.04;68.64;99346.91;5084059;28;20053;-96